sensor_id;sensor_type;location;lat;lon;timestamp;P1;durP1;ratioP1;P2;durP2;ratioP2
49101;SDS011;34913;47.520;19.186;2024-03-08T00:00:07;23.23;;;13.65;;
49101;SDS011;34913;47.520;19.186;2024-03-08T00:02:40;22.85;;;13.38;;
49101;SDS011;34913;47.520;19.186;2024-03-08T00:05:06;20.83;;;13.68;;
49101;SDS011;34913;47.520;19.186;2024-03-08T00:07:34;20.73;;;13.63;;
49101;SDS011;34913;47.520;19.186;2024-03-08T00:09:59;20.70;;;13.48;;
49101;SDS011;34913;47.520;19.186;2024-03-08T00:12:25;21.13;;;13.52;;
49101;SDS011;34913;47.520;19.186;2024-03-08T00:14:52;21.73;;;13.30;;
49101;SDS011;34913;47.520;19.186;2024-03-08T00:17:18;21.85;;;14.65;;
49101;SDS011;34913;47.520;19.186;2024-03-08T00:19:43;23.30;;;14.70;;
49101;SDS011;34913;47.520;19.186;2024-03-08T00:22:08;23.27;;;14.55;;
49101;SDS011;34913;47.520;19.186;2024-03-08T00:24:35;20.17;;;13.57;;
49101;SDS011;34913;47.520;19.186;2024-03-08T00:27:00;24.20;;;14.93;;
49101;SDS011;34913;47.520;19.186;2024-03-08T00:29:27;21.80;;;14.20;;
49101;SDS011;34913;47.520;19.186;2024-03-08T00:31:52;22.65;;;14.20;;
49101;SDS011;34913;47.520;19.186;2024-03-08T00:34:17;21.20;;;13.00;;
49101;SDS011;34913;47.520;19.186;2024-03-08T00:36:43;21.70;;;13.68;;
49101;SDS011;34913;47.520;19.186;2024-03-08T00:39:09;20.95;;;13.93;;
49101;SDS011;34913;47.520;19.186;2024-03-08T00:41:34;21.33;;;13.15;;
49101;SDS011;34913;47.520;19.186;2024-03-08T00:43:59;23.95;;;14.73;;
49101;SDS011;34913;47.520;19.186;2024-03-08T00:46:25;22.08;;;13.82;;
49101;SDS011;34913;47.520;19.186;2024-03-08T00:48:50;22.05;;;14.38;;
49101;SDS011;34913;47.520;19.186;2024-03-08T00:51:16;21.40;;;14.23;;
49101;SDS011;34913;47.520;19.186;2024-03-08T00:53:41;21.13;;;13.65;;
49101;SDS011;34913;47.520;19.186;2024-03-08T00:56:08;25.55;;;14.60;;
49101;SDS011;34913;47.520;19.186;2024-03-08T00:58:36;22.50;;;14.20;;
49101;SDS011;34913;47.520;19.186;2024-03-08T01:01:01;24.10;;;15.20;;
49101;SDS011;34913;47.520;19.186;2024-03-08T01:03:27;24.73;;;15.55;;
49101;SDS011;34913;47.520;19.186;2024-03-08T01:05:52;25.05;;;15.48;;
49101;SDS011;34913;47.520;19.186;2024-03-08T01:08:18;26.40;;;15.60;;
49101;SDS011;34913;47.520;19.186;2024-03-08T01:10:43;23.63;;;14.68;;
49101;SDS011;34913;47.520;19.186;2024-03-08T01:13:08;24.77;;;15.48;;
49101;SDS011;34913;47.520;19.186;2024-03-08T01:15:34;24.45;;;15.65;;
49101;SDS011;34913;47.520;19.186;2024-03-08T01:18:00;23.92;;;15.85;;
49101;SDS011;34913;47.520;19.186;2024-03-08T01:20:26;33.38;;;20.17;;
49101;SDS011;34913;47.520;19.186;2024-03-08T01:22:52;35.97;;;20.92;;
49101;SDS011;34913;47.520;19.186;2024-03-08T01:25:18;33.58;;;19.65;;
49101;SDS011;34913;47.520;19.186;2024-03-08T01:27:43;39.53;;;21.65;;
49101;SDS011;34913;47.520;19.186;2024-03-08T01:30:09;34.03;;;20.15;;
49101;SDS011;34913;47.520;19.186;2024-03-08T01:32:34;37.20;;;21.08;;
49101;SDS011;34913;47.520;19.186;2024-03-08T01:35:00;39.58;;;21.42;;
49101;SDS011;34913;47.520;19.186;2024-03-08T01:37:26;36.15;;;21.05;;
49101;SDS011;34913;47.520;19.186;2024-03-08T01:39:51;36.97;;;22.02;;
49101;SDS011;34913;47.520;19.186;2024-03-08T01:42:17;46.38;;;22.35;;
49101;SDS011;34913;47.520;19.186;2024-03-08T01:44:42;35.65;;;20.98;;
49101;SDS011;34913;47.520;19.186;2024-03-08T01:47:09;38.00;;;22.15;;
49101;SDS011;34913;47.520;19.186;2024-03-08T01:49:36;40.20;;;23.20;;
49101;SDS011;34913;47.520;19.186;2024-03-08T01:52:02;41.22;;;22.58;;
49101;SDS011;34913;47.520;19.186;2024-03-08T01:54:28;40.75;;;22.05;;
49101;SDS011;34913;47.520;19.186;2024-03-08T01:56:55;39.58;;;22.88;;
49101;SDS011;34913;47.520;19.186;2024-03-08T01:59:22;40.85;;;22.52;;
49101;SDS011;34913;47.520;19.186;2024-03-08T02:01:48;36.15;;;21.20;;
49101;SDS011;34913;47.520;19.186;2024-03-08T02:04:14;38.60;;;21.38;;
49101;SDS011;34913;47.520;19.186;2024-03-08T02:06:39;37.83;;;22.52;;
49101;SDS011;34913;47.520;19.186;2024-03-08T02:09:04;46.08;;;23.52;;
49101;SDS011;34913;47.520;19.186;2024-03-08T02:11:35;42.88;;;23.60;;
49101;SDS011;34913;47.520;19.186;2024-03-08T02:14:01;43.20;;;23.38;;
49101;SDS011;34913;47.520;19.186;2024-03-08T02:16:26;45.95;;;23.42;;
49101;SDS011;34913;47.520;19.186;2024-03-08T02:18:52;44.22;;;23.80;;
49101;SDS011;34913;47.520;19.186;2024-03-08T02:21:18;44.60;;;22.90;;
49101;SDS011;34913;47.520;19.186;2024-03-08T02:23:44;42.33;;;22.40;;
49101;SDS011;34913;47.520;19.186;2024-03-08T02:26:09;42.88;;;23.38;;
49101;SDS011;34913;47.520;19.186;2024-03-08T02:28:35;46.35;;;23.55;;
49101;SDS011;34913;47.520;19.186;2024-03-08T02:31:01;42.42;;;23.10;;
49101;SDS011;34913;47.520;19.186;2024-03-08T02:33:27;47.95;;;24.52;;
49101;SDS011;34913;47.520;19.186;2024-03-08T02:35:53;44.42;;;23.45;;
49101;SDS011;34913;47.520;19.186;2024-03-08T02:38:19;44.25;;;22.85;;
49101;SDS011;34913;47.520;19.186;2024-03-08T02:40:47;43.47;;;23.05;;
49101;SDS011;34913;47.520;19.186;2024-03-08T02:43:14;48.65;;;23.88;;
49101;SDS011;34913;47.520;19.186;2024-03-08T02:45:40;45.72;;;22.95;;
49101;SDS011;34913;47.520;19.186;2024-03-08T02:48:10;44.83;;;23.30;;
49101;SDS011;34913;47.520;19.186;2024-03-08T02:50:36;47.25;;;24.20;;
49101;SDS011;34913;47.520;19.186;2024-03-08T02:53:02;45.30;;;23.77;;
49101;SDS011;34913;47.520;19.186;2024-03-08T02:55:28;45.88;;;25.20;;
49101;SDS011;34913;47.520;19.186;2024-03-08T02:57:54;44.30;;;23.58;;
49101;SDS011;34913;47.520;19.186;2024-03-08T03:00:20;44.35;;;23.67;;
49101;SDS011;34913;47.520;19.186;2024-03-08T03:02:48;47.58;;;24.88;;
49101;SDS011;34913;47.520;19.186;2024-03-08T03:05:17;42.92;;;24.20;;
49101;SDS011;34913;47.520;19.186;2024-03-08T03:07:42;46.42;;;24.08;;
49101;SDS011;34913;47.520;19.186;2024-03-08T03:10:08;46.80;;;24.55;;
49101;SDS011;34913;47.520;19.186;2024-03-08T03:12:33;46.78;;;24.55;;
49101;SDS011;34913;47.520;19.186;2024-03-08T03:14:59;44.10;;;23.52;;
49101;SDS011;34913;47.520;19.186;2024-03-08T03:17:24;45.25;;;24.02;;
49101;SDS011;34913;47.520;19.186;2024-03-08T03:19:50;45.22;;;23.35;;
49101;SDS011;34913;47.520;19.186;2024-03-08T03:22:16;46.72;;;24.52;;
49101;SDS011;34913;47.520;19.186;2024-03-08T03:24:43;43.72;;;23.95;;
49101;SDS011;34913;47.520;19.186;2024-03-08T03:27:09;46.65;;;23.42;;
49101;SDS011;34913;47.520;19.186;2024-03-08T03:29:38;46.65;;;24.55;;
49101;SDS011;34913;47.520;19.186;2024-03-08T03:32:04;41.38;;;23.17;;
49101;SDS011;34913;47.520;19.186;2024-03-08T03:34:30;46.90;;;24.60;;
49101;SDS011;34913;47.520;19.186;2024-03-08T03:36:55;48.88;;;24.52;;
49101;SDS011;34913;47.520;19.186;2024-03-08T03:39:21;44.70;;;23.45;;
49101;SDS011;34913;47.520;19.186;2024-03-08T03:41:47;47.78;;;23.65;;
49101;SDS011;34913;47.520;19.186;2024-03-08T03:44:16;48.47;;;24.30;;
49101;SDS011;34913;47.520;19.186;2024-03-08T03:46:43;46.58;;;23.48;;
49101;SDS011;34913;47.520;19.186;2024-03-08T03:49:11;45.47;;;24.33;;
49101;SDS011;34913;47.520;19.186;2024-03-08T03:51:37;47.63;;;24.48;;
49101;SDS011;34913;47.520;19.186;2024-03-08T03:54:02;47.08;;;24.15;;
49101;SDS011;34913;47.520;19.186;2024-03-08T03:56:28;47.40;;;24.42;;
49101;SDS011;34913;47.520;19.186;2024-03-08T03:58:55;45.58;;;23.75;;
49101;SDS011;34913;47.520;19.186;2024-03-08T04:01:21;48.13;;;24.77;;
49101;SDS011;34913;47.520;19.186;2024-03-08T04:03:46;46.63;;;24.58;;
49101;SDS011;34913;47.520;19.186;2024-03-08T04:06:12;47.60;;;24.33;;
49101;SDS011;34913;47.520;19.186;2024-03-08T04:08:37;46.58;;;24.70;;
49101;SDS011;34913;47.520;19.186;2024-03-08T04:11:03;48.85;;;24.73;;
49101;SDS011;34913;47.520;19.186;2024-03-08T04:13:28;49.83;;;25.38;;
49101;SDS011;34913;47.520;19.186;2024-03-08T04:15:54;45.38;;;23.80;;
49101;SDS011;34913;47.520;19.186;2024-03-08T04:18:19;45.78;;;24.00;;
49101;SDS011;34913;47.520;19.186;2024-03-08T04:20:45;49.45;;;23.90;;
49101;SDS011;34913;47.520;19.186;2024-03-08T04:23:10;47.92;;;24.38;;
49101;SDS011;34913;47.520;19.186;2024-03-08T04:25:36;46.50;;;24.67;;
49101;SDS011;34913;47.520;19.186;2024-03-08T04:28:01;50.05;;;25.10;;
49101;SDS011;34913;47.520;19.186;2024-03-08T04:30:26;45.00;;;24.65;;
49101;SDS011;34913;47.520;19.186;2024-03-08T04:32:53;49.90;;;23.80;;
49101;SDS011;34913;47.520;19.186;2024-03-08T04:35:19;49.35;;;25.60;;
49101;SDS011;34913;47.520;19.186;2024-03-08T04:37:45;44.15;;;23.42;;
49101;SDS011;34913;47.520;19.186;2024-03-08T04:40:10;47.97;;;25.23;;
49101;SDS011;34913;47.520;19.186;2024-03-08T04:42:36;51.20;;;24.45;;
49101;SDS011;34913;47.520;19.186;2024-03-08T04:45:03;47.65;;;24.92;;
49101;SDS011;34913;47.520;19.186;2024-03-08T04:47:29;45.58;;;24.55;;
49101;SDS011;34913;47.520;19.186;2024-03-08T04:49:54;42.30;;;22.30;;
49101;SDS011;34913;47.520;19.186;2024-03-08T04:52:21;47.30;;;25.80;;
49101;SDS011;34913;47.520;19.186;2024-03-08T04:54:47;47.25;;;24.25;;
49101;SDS011;34913;47.520;19.186;2024-03-08T04:57:12;49.53;;;26.00;;
49101;SDS011;34913;47.520;19.186;2024-03-08T04:59:37;49.20;;;24.08;;
49101;SDS011;34913;47.520;19.186;2024-03-08T05:02:03;46.53;;;24.25;;
49101;SDS011;34913;47.520;19.186;2024-03-08T05:04:29;48.95;;;25.00;;
49101;SDS011;34913;47.520;19.186;2024-03-08T05:06:54;51.40;;;25.02;;
49101;SDS011;34913;47.520;19.186;2024-03-08T05:09:20;45.58;;;24.23;;
49101;SDS011;34913;47.520;19.186;2024-03-08T05:11:46;50.90;;;24.75;;
49101;SDS011;34913;47.520;19.186;2024-03-08T05:14:12;49.13;;;24.20;;
49101;SDS011;34913;47.520;19.186;2024-03-08T05:16:42;49.35;;;24.25;;
49101;SDS011;34913;47.520;19.186;2024-03-08T05:19:14;46.88;;;24.77;;
49101;SDS011;34913;47.520;19.186;2024-03-08T05:21:41;54.20;;;26.05;;
49101;SDS011;34913;47.520;19.186;2024-03-08T05:24:08;49.63;;;25.38;;
49101;SDS011;34913;47.520;19.186;2024-03-08T05:26:35;55.90;;;26.30;;
49101;SDS011;34913;47.520;19.186;2024-03-08T05:29:00;48.92;;;25.80;;
49101;SDS011;34913;47.520;19.186;2024-03-08T05:31:25;53.42;;;26.08;;
49101;SDS011;34913;47.520;19.186;2024-03-08T05:33:51;56.58;;;28.08;;
49101;SDS011;34913;47.520;19.186;2024-03-08T05:36:16;60.50;;;27.38;;
49101;SDS011;34913;47.520;19.186;2024-03-08T05:38:45;51.75;;;26.25;;
49101;SDS011;34913;47.520;19.186;2024-03-08T05:41:10;52.63;;;27.52;;
49101;SDS011;34913;47.520;19.186;2024-03-08T05:43:40;56.28;;;28.15;;
49101;SDS011;34913;47.520;19.186;2024-03-08T05:46:05;58.63;;;29.35;;
49101;SDS011;34913;47.520;19.186;2024-03-08T05:48:31;57.38;;;27.10;;
49101;SDS011;34913;47.520;19.186;2024-03-08T05:51:02;52.35;;;27.15;;
49101;SDS011;34913;47.520;19.186;2024-03-08T05:53:27;53.53;;;27.75;;
49101;SDS011;34913;47.520;19.186;2024-03-08T05:55:56;57.10;;;27.33;;
49101;SDS011;34913;47.520;19.186;2024-03-08T05:58:22;48.97;;;26.17;;
49101;SDS011;34913;47.520;19.186;2024-03-08T06:00:47;47.10;;;25.30;;
49101;SDS011;34913;47.520;19.186;2024-03-08T06:03:13;48.72;;;25.20;;
49101;SDS011;34913;47.520;19.186;2024-03-08T06:05:38;56.97;;;29.35;;
49101;SDS011;34913;47.520;19.186;2024-03-08T06:08:06;52.17;;;25.48;;
49101;SDS011;34913;47.520;19.186;2024-03-08T06:10:34;47.63;;;24.13;;
49101;SDS011;34913;47.520;19.186;2024-03-08T06:13:07;50.72;;;25.00;;
49101;SDS011;34913;47.520;19.186;2024-03-08T06:15:33;44.47;;;23.45;;
49101;SDS011;34913;47.520;19.186;2024-03-08T06:17:59;46.50;;;25.70;;
49101;SDS011;34913;47.520;19.186;2024-03-08T06:20:25;49.30;;;24.90;;
49101;SDS011;34913;47.520;19.186;2024-03-08T06:22:51;45.72;;;24.33;;
49101;SDS011;34913;47.520;19.186;2024-03-08T06:25:17;48.20;;;24.92;;
49101;SDS011;34913;47.520;19.186;2024-03-08T06:27:43;49.50;;;25.05;;
49101;SDS011;34913;47.520;19.186;2024-03-08T06:30:09;46.65;;;25.70;;
49101;SDS011;34913;47.520;19.186;2024-03-08T06:32:35;48.50;;;25.08;;
49101;SDS011;34913;47.520;19.186;2024-03-08T06:35:04;53.10;;;25.38;;
49101;SDS011;34913;47.520;19.186;2024-03-08T06:37:31;51.85;;;26.30;;
49101;SDS011;34913;47.520;19.186;2024-03-08T06:39:57;50.47;;;26.20;;
49101;SDS011;34913;47.520;19.186;2024-03-08T06:42:23;89.65;;;25.77;;
49101;SDS011;34913;47.520;19.186;2024-03-08T06:44:48;48.55;;;24.42;;
49101;SDS011;34913;47.520;19.186;2024-03-08T06:47:17;50.58;;;24.75;;
49101;SDS011;34913;47.520;19.186;2024-03-08T06:49:42;51.80;;;24.83;;
49101;SDS011;34913;47.520;19.186;2024-03-08T06:52:11;44.30;;;23.50;;
49101;SDS011;34913;47.520;19.186;2024-03-08T06:54:36;45.25;;;23.15;;
49101;SDS011;34913;47.520;19.186;2024-03-08T06:57:05;62.97;;;24.15;;
49101;SDS011;34913;47.520;19.186;2024-03-08T06:59:31;45.78;;;24.33;;
49101;SDS011;34913;47.520;19.186;2024-03-08T07:01:56;46.85;;;24.15;;
49101;SDS011;34913;47.520;19.186;2024-03-08T07:04:22;49.50;;;26.00;;
49101;SDS011;34913;47.520;19.186;2024-03-08T07:06:51;48.00;;;25.50;;
49101;SDS011;34913;47.520;19.186;2024-03-08T07:09:17;47.88;;;24.65;;
49101;SDS011;34913;47.520;19.186;2024-03-08T07:11:42;48.15;;;24.63;;
49101;SDS011;34913;47.520;19.186;2024-03-08T07:14:08;46.65;;;25.40;;
49101;SDS011;34913;47.520;19.186;2024-03-08T07:16:33;46.55;;;24.77;;
49101;SDS011;34913;47.520;19.186;2024-03-08T07:19:00;50.92;;;25.38;;
49101;SDS011;34913;47.520;19.186;2024-03-08T07:21:26;49.55;;;25.73;;
49101;SDS011;34913;47.520;19.186;2024-03-08T07:23:51;52.63;;;24.58;;
49101;SDS011;34913;47.520;19.186;2024-03-08T07:26:26;49.38;;;24.95;;
49101;SDS011;34913;47.520;19.186;2024-03-08T07:28:51;55.25;;;26.02;;
49101;SDS011;34913;47.520;19.186;2024-03-08T07:31:17;48.53;;;24.00;;
49101;SDS011;34913;47.520;19.186;2024-03-08T07:33:51;45.33;;;23.80;;
49101;SDS011;34913;47.520;19.186;2024-03-08T07:36:18;52.58;;;24.92;;
49101;SDS011;34913;47.520;19.186;2024-03-08T07:38:44;52.00;;;25.13;;
49101;SDS011;34913;47.520;19.186;2024-03-08T07:41:11;49.72;;;24.67;;
49101;SDS011;34913;47.520;19.186;2024-03-08T07:43:37;54.72;;;25.20;;
49101;SDS011;34913;47.520;19.186;2024-03-08T07:46:03;48.75;;;25.65;;
49101;SDS011;34913;47.520;19.186;2024-03-08T07:48:28;54.75;;;25.13;;
49101;SDS011;34913;47.520;19.186;2024-03-08T07:50:55;64.25;;;25.45;;
49101;SDS011;34913;47.520;19.186;2024-03-08T07:53:21;48.78;;;24.92;;
49101;SDS011;34913;47.520;19.186;2024-03-08T07:55:46;51.33;;;25.02;;
49101;SDS011;34913;47.520;19.186;2024-03-08T07:58:12;52.08;;;24.67;;
49101;SDS011;34913;47.520;19.186;2024-03-08T08:00:38;52.28;;;25.23;;
49101;SDS011;34913;47.520;19.186;2024-03-08T08:03:04;47.90;;;24.88;;
49101;SDS011;34913;47.520;19.186;2024-03-08T08:05:30;52.97;;;26.38;;
49101;SDS011;34913;47.520;19.186;2024-03-08T08:08:00;53.88;;;25.33;;
49101;SDS011;34913;47.520;19.186;2024-03-08T08:10:31;47.80;;;24.25;;
49101;SDS011;34913;47.520;19.186;2024-03-08T08:12:57;52.35;;;25.23;;
49101;SDS011;34913;47.520;19.186;2024-03-08T08:15:23;59.60;;;25.20;;
49101;SDS011;34913;47.520;19.186;2024-03-08T08:17:48;55.08;;;26.30;;
49101;SDS011;34913;47.520;19.186;2024-03-08T08:20:14;54.22;;;25.02;;
49101;SDS011;34913;47.520;19.186;2024-03-08T08:22:40;53.88;;;25.75;;
49101;SDS011;34913;47.520;19.186;2024-03-08T08:25:09;55.08;;;25.65;;
49101;SDS011;34913;47.520;19.186;2024-03-08T08:27:38;56.00;;;26.23;;
49101;SDS011;34913;47.520;19.186;2024-03-08T08:30:05;49.65;;;24.00;;
49101;SDS011;34913;47.520;19.186;2024-03-08T08:32:34;49.92;;;24.75;;
49101;SDS011;34913;47.520;19.186;2024-03-08T08:35:01;52.42;;;26.38;;
49101;SDS011;34913;47.520;19.186;2024-03-08T08:37:27;55.22;;;26.17;;
49101;SDS011;34913;47.520;19.186;2024-03-08T08:39:53;60.17;;;25.73;;
49101;SDS011;34913;47.520;19.186;2024-03-08T08:42:19;60.38;;;26.42;;
49101;SDS011;34913;47.520;19.186;2024-03-08T08:44:44;57.88;;;25.83;;
49101;SDS011;34913;47.520;19.186;2024-03-08T08:47:11;57.70;;;26.52;;
49101;SDS011;34913;47.520;19.186;2024-03-08T08:49:36;58.83;;;26.60;;
49101;SDS011;34913;47.520;19.186;2024-03-08T08:52:01;55.15;;;26.30;;
49101;SDS011;34913;47.520;19.186;2024-03-08T08:54:28;55.05;;;26.23;;
49101;SDS011;34913;47.520;19.186;2024-03-08T08:56:53;68.47;;;26.17;;
49101;SDS011;34913;47.520;19.186;2024-03-08T08:59:18;58.22;;;26.23;;
49101;SDS011;34913;47.520;19.186;2024-03-08T09:01:44;59.28;;;28.42;;
49101;SDS011;34913;47.520;19.186;2024-03-08T09:04:13;61.22;;;27.35;;
49101;SDS011;34913;47.520;19.186;2024-03-08T09:06:38;50.50;;;25.63;;
49101;SDS011;34913;47.520;19.186;2024-03-08T09:09:06;59.95;;;27.27;;
49101;SDS011;34913;47.520;19.186;2024-03-08T09:11:34;60.13;;;27.48;;
49101;SDS011;34913;47.520;19.186;2024-03-08T09:13:59;58.10;;;25.63;;
49101;SDS011;34913;47.520;19.186;2024-03-08T09:16:25;56.15;;;26.60;;
49101;SDS011;34913;47.520;19.186;2024-03-08T09:18:51;55.90;;;26.73;;
49101;SDS011;34913;47.520;19.186;2024-03-08T09:21:16;56.17;;;26.67;;
49101;SDS011;34913;47.520;19.186;2024-03-08T09:23:42;56.67;;;25.25;;
49101;SDS011;34913;47.520;19.186;2024-03-08T09:26:09;55.22;;;26.13;;
49101;SDS011;34913;47.520;19.186;2024-03-08T09:28:37;51.33;;;25.30;;
49101;SDS011;34913;47.520;19.186;2024-03-08T09:31:03;53.55;;;25.58;;
49101;SDS011;34913;47.520;19.186;2024-03-08T09:33:30;55.25;;;26.77;;
49101;SDS011;34913;47.520;19.186;2024-03-08T09:35:56;53.40;;;24.73;;
49101;SDS011;34913;47.520;19.186;2024-03-08T09:38:24;49.40;;;25.65;;
49101;SDS011;34913;47.520;19.186;2024-03-08T09:40:50;53.20;;;24.88;;
49101;SDS011;34913;47.520;19.186;2024-03-08T09:43:16;50.83;;;26.65;;
49101;SDS011;34913;47.520;19.186;2024-03-08T09:45:43;49.80;;;25.98;;
49101;SDS011;34913;47.520;19.186;2024-03-08T09:48:14;52.17;;;24.92;;
49101;SDS011;34913;47.520;19.186;2024-03-08T09:50:42;53.55;;;25.63;;
49101;SDS011;34913;47.520;19.186;2024-03-08T09:53:07;54.45;;;25.60;;
49101;SDS011;34913;47.520;19.186;2024-03-08T09:55:36;58.33;;;26.75;;
49101;SDS011;34913;47.520;19.186;2024-03-08T09:58:05;52.15;;;25.25;;
49101;SDS011;34913;47.520;19.186;2024-03-08T10:00:50;47.88;;;24.25;;
49101;SDS011;34913;47.520;19.186;2024-03-08T10:03:15;45.65;;;24.15;;
49101;SDS011;34913;47.520;19.186;2024-03-08T10:05:41;43.85;;;23.67;;
49101;SDS011;34913;47.520;19.186;2024-03-08T10:08:07;52.08;;;24.55;;
49101;SDS011;34913;47.520;19.186;2024-03-08T10:10:33;52.75;;;23.80;;
49101;SDS011;34913;47.520;19.186;2024-03-08T10:12:59;49.95;;;24.35;;
49101;SDS011;34913;47.520;19.186;2024-03-08T10:15:26;50.45;;;24.75;;
49101;SDS011;34913;47.520;19.186;2024-03-08T10:17:57;49.03;;;24.75;;
49101;SDS011;34913;47.520;19.186;2024-03-08T10:20:23;46.10;;;23.88;;
49101;SDS011;34913;47.520;19.186;2024-03-08T10:22:49;48.75;;;24.30;;
49101;SDS011;34913;47.520;19.186;2024-03-08T10:25:14;48.72;;;25.70;;
49101;SDS011;34913;47.520;19.186;2024-03-08T10:27:40;49.92;;;25.08;;
49101;SDS011;34913;47.520;19.186;2024-03-08T10:30:10;49.33;;;23.85;;
49101;SDS011;34913;47.520;19.186;2024-03-08T10:32:38;44.58;;;23.02;;
49101;SDS011;34913;47.520;19.186;2024-03-08T10:35:03;42.17;;;23.05;;
49101;SDS011;34913;47.520;19.186;2024-03-08T10:37:29;38.83;;;22.02;;
49101;SDS011;34913;47.520;19.186;2024-03-08T10:40:02;38.65;;;21.27;;
49101;SDS011;34913;47.520;19.186;2024-03-08T10:42:35;42.47;;;21.48;;
49101;SDS011;34913;47.520;19.186;2024-03-08T10:45:15;40.00;;;21.83;;
49101;SDS011;34913;47.520;19.186;2024-03-08T10:47:46;41.03;;;21.90;;
49101;SDS011;34913;47.520;19.186;2024-03-08T10:50:18;41.25;;;23.33;;
49101;SDS011;34913;47.520;19.186;2024-03-08T10:52:51;38.30;;;21.38;;
49101;SDS011;34913;47.520;19.186;2024-03-08T10:55:17;37.10;;;20.42;;
49101;SDS011;34913;47.520;19.186;2024-03-08T10:57:45;38.03;;;20.13;;
49101;SDS011;34913;47.520;19.186;2024-03-08T11:00:11;35.75;;;20.42;;
49101;SDS011;34913;47.520;19.186;2024-03-08T11:02:38;37.92;;;21.67;;
49101;SDS011;34913;47.520;19.186;2024-03-08T11:05:04;36.58;;;21.20;;
49101;SDS011;34913;47.520;19.186;2024-03-08T11:07:33;38.30;;;22.00;;
49101;SDS011;34913;47.520;19.186;2024-03-08T11:10:02;40.42;;;22.58;;
49101;SDS011;34913;47.520;19.186;2024-03-08T11:12:31;38.25;;;22.08;;
49101;SDS011;34913;47.520;19.186;2024-03-08T11:15:02;38.90;;;23.33;;
49101;SDS011;34913;47.520;19.186;2024-03-08T11:20:11;40.40;;;22.02;;
49101;SDS011;34913;47.520;19.186;2024-03-08T11:22:42;37.40;;;21.55;;
49101;SDS011;34913;47.520;19.186;2024-03-08T11:25:30;33.67;;;20.77;;
49101;SDS011;34913;47.520;19.186;2024-03-08T11:28:07;35.45;;;20.20;;
49101;SDS011;34913;47.520;19.186;2024-03-08T11:30:33;34.15;;;20.85;;
49101;SDS011;34913;47.520;19.186;2024-03-08T11:33:00;39.38;;;21.60;;
49101;SDS011;34913;47.520;19.186;2024-03-08T11:35:28;35.35;;;20.23;;
49101;SDS011;34913;47.520;19.186;2024-03-08T11:37:53;36.33;;;21.63;;
49101;SDS011;34913;47.520;19.186;2024-03-08T11:40:19;38.78;;;22.05;;
49101;SDS011;34913;47.520;19.186;2024-03-08T11:42:46;37.90;;;21.77;;
49101;SDS011;34913;47.520;19.186;2024-03-08T11:45:17;38.75;;;23.05;;
49101;SDS011;34913;47.520;19.186;2024-03-08T11:47:43;42.13;;;24.75;;
49101;SDS011;34913;47.520;19.186;2024-03-08T11:50:11;44.70;;;24.98;;
49101;SDS011;34913;47.520;19.186;2024-03-08T11:52:38;41.88;;;25.38;;
49101;SDS011;34913;47.520;19.186;2024-03-08T11:55:03;43.45;;;25.05;;
49101;SDS011;34913;47.520;19.186;2024-03-08T11:57:30;44.40;;;24.73;;
49101;SDS011;34913;47.520;19.186;2024-03-08T11:59:57;39.00;;;23.83;;
49101;SDS011;34913;47.520;19.186;2024-03-08T12:02:24;38.13;;;23.13;;
49101;SDS011;34913;47.520;19.186;2024-03-08T12:04:55;31.77;;;21.15;;
49101;SDS011;34913;47.520;19.186;2024-03-08T12:07:22;35.72;;;21.40;;
49101;SDS011;34913;47.520;19.186;2024-03-08T12:12:42;33.72;;;20.88;;
49101;SDS011;34913;47.520;19.186;2024-03-08T12:15:12;33.97;;;18.95;;
49101;SDS011;34913;47.520;19.186;2024-03-08T12:17:38;31.88;;;20.00;;
49101;SDS011;34913;47.520;19.186;2024-03-08T12:20:12;28.58;;;19.23;;
49101;SDS011;34913;47.520;19.186;2024-03-08T12:22:41;32.95;;;18.25;;
49101;SDS011;34913;47.520;19.186;2024-03-08T12:25:13;29.73;;;18.45;;
49101;SDS011;34913;47.520;19.186;2024-03-08T12:27:42;30.40;;;18.52;;
49101;SDS011;34913;47.520;19.186;2024-03-08T12:30:18;29.40;;;18.70;;
49101;SDS011;34913;47.520;19.186;2024-03-08T12:32:50;32.33;;;19.77;;
49101;SDS011;34913;47.520;19.186;2024-03-08T12:35:18;31.95;;;19.38;;
49101;SDS011;34913;47.520;19.186;2024-03-08T12:37:47;33.60;;;20.38;;
49101;SDS011;34913;47.520;19.186;2024-03-08T12:40:14;33.78;;;20.35;;
49101;SDS011;34913;47.520;19.186;2024-03-08T12:42:41;31.65;;;19.38;;
49101;SDS011;34913;47.520;19.186;2024-03-08T12:45:08;29.30;;;19.25;;
49101;SDS011;34913;47.520;19.186;2024-03-08T12:47:35;29.55;;;18.42;;
49101;SDS011;34913;47.520;19.186;2024-03-08T12:50:00;32.35;;;19.75;;
49101;SDS011;34913;47.520;19.186;2024-03-08T12:52:26;36.90;;;22.08;;
49101;SDS011;34913;47.520;19.186;2024-03-08T12:54:51;40.50;;;22.25;;
49101;SDS011;34913;47.520;19.186;2024-03-08T12:57:17;46.08;;;25.13;;
49101;SDS011;34913;47.520;19.186;2024-03-08T12:59:42;46.60;;;25.83;;
49101;SDS011;34913;47.520;19.186;2024-03-08T13:02:07;41.85;;;24.90;;
49101;SDS011;34913;47.520;19.186;2024-03-08T13:04:36;44.22;;;25.45;;
49101;SDS011;34913;47.520;19.186;2024-03-08T13:07:01;44.28;;;24.98;;
49101;SDS011;34913;47.520;19.186;2024-03-08T13:09:27;48.10;;;25.88;;
49101;SDS011;34913;47.520;19.186;2024-03-08T13:11:52;47.00;;;25.88;;
49101;SDS011;34913;47.520;19.186;2024-03-08T13:14:19;49.70;;;24.65;;
49101;SDS011;34913;47.520;19.186;2024-03-08T13:16:45;46.75;;;25.55;;
49101;SDS011;34913;47.520;19.186;2024-03-08T13:19:13;48.15;;;25.52;;
49101;SDS011;34913;47.520;19.186;2024-03-08T13:21:39;42.08;;;24.50;;
49101;SDS011;34913;47.520;19.186;2024-03-08T13:24:04;44.78;;;25.15;;
49101;SDS011;34913;47.520;19.186;2024-03-08T13:26:30;42.22;;;25.13;;
49101;SDS011;34913;47.520;19.186;2024-03-08T13:28:58;39.10;;;22.70;;
49101;SDS011;34913;47.520;19.186;2024-03-08T13:31:24;42.15;;;23.75;;
49101;SDS011;34913;47.520;19.186;2024-03-08T13:33:49;44.00;;;25.00;;
49101;SDS011;34913;47.520;19.186;2024-03-08T13:36:16;43.05;;;23.45;;
49101;SDS011;34913;47.520;19.186;2024-03-08T13:38:46;43.25;;;22.40;;
49101;SDS011;34913;47.520;19.186;2024-03-08T13:41:13;37.85;;;23.02;;
49101;SDS011;34913;47.520;19.186;2024-03-08T13:43:43;41.80;;;22.73;;
49101;SDS011;34913;47.520;19.186;2024-03-08T13:46:10;40.10;;;22.00;;
49101;SDS011;34913;47.520;19.186;2024-03-08T13:48:36;37.85;;;21.92;;
49101;SDS011;34913;47.520;19.186;2024-03-08T13:51:06;38.00;;;21.77;;
49101;SDS011;34913;47.520;19.186;2024-03-08T13:53:32;37.58;;;21.55;;
49101;SDS011;34913;47.520;19.186;2024-03-08T13:55:59;37.72;;;21.60;;
49101;SDS011;34913;47.520;19.186;2024-03-08T13:58:26;41.28;;;21.40;;
49101;SDS011;34913;47.520;19.186;2024-03-08T14:00:51;36.33;;;21.58;;
49101;SDS011;34913;47.520;19.186;2024-03-08T14:03:17;40.30;;;21.00;;
49101;SDS011;34913;47.520;19.186;2024-03-08T14:05:43;36.97;;;21.75;;
49101;SDS011;34913;47.520;19.186;2024-03-08T14:08:08;35.10;;;21.17;;
49101;SDS011;34913;47.520;19.186;2024-03-08T14:10:34;35.35;;;20.38;;